Αρχική σελίδα
METAR-TAF:

METAR-TAF

Αεροδρόμια :

Tinian, Νήσοι Μαριάννα, Ηνωμένες Πολιτείες Αμερικής

γεωγραφικό πλάτος: 14-59N, γεωγραφικό μήκος: 145-37E, υψόμετρο: 82 μ

Παρών καιρός

Η αναφορά έγινε 3 ώρες και 42 λεπτά πριν, στις 08:55 UTC
Άνεμος 7 kt από Α
Θερμοκρασία 27°C
Υγρασία 79%
Πίεση 1013 hPa
Ορατότητα: 11.3 χλμ
Διάσπαρτα νέφη σε ύψος 1500 πόδια
Διάσπαρτα νέφη σε ύψος 6000 πόδια

METAR: PGWT 050855Z 08007KT 7SM SCT015 SCT060 27/23 A2991 RMK LAST

Χρόνος: 22:37 (12:37 UTC)

Πρόγνωση Καιρού

Η αναφορά έγινε 7 ώρες και 4 λεπτά πριν, στις 05:33 UTC
Η πρόγνωση ισχύει από τις 05 στις 06 UTC έως τις 06 στις 06 UTC
Άνεμος 12 kt από Α/BA
Ορατότητα: 10 χλμ
Διάσπαρτα νέφη σε ύψος 1600 πόδια
Διάσπαρτα νέφη σε ύψος 6000 πόδια

TAF: PGWT 050533Z 0506/0606 06012KT P6SM SCT016 SCT060

Μετεωρολογικές αναφορές και προγνώσεις για περισσότερα από 4000 αεροδρόμια (δελτία METAR και TAF).

Οι διαθέσιμοι σταθμοί απεικονίζονται στο χάρτη με κίτρινες και κόκκινες κουκκίδες.

Μετακινήστε το ποντίκι πάνω από τις κουκκίδες για να δείτε το όνομα του σταθμού.

Στη συνέχεια, κάντε κλικ για να δείτε τις μετεωρολογικές αναφορές και τις προγνώσεις καιρού.

Για να αλλάξετε το χάρτη: κάντε κλικ στα πράσινα κουμπιά με τον μαύρο σταυρό για να ζουμάρετε, στο πράσινο κουμπί με την παύλα για να αφαιρέσετε το ζουμ ή στα πράσινα βέλη για να αντιπαραβάλλετε χάρτες.


METAR-TAF: